Time;durP1;ratioP1;P1;durP2;ratioP2;P2;SDS_P1;SDS_P2;PMS_P1;PMS_P2;Temp;Humidity;BMP_temperature;BMP_pressure;BME280_temperature;BME280_humidity;BME280_pressure;Samples;Min_cycle;Max_cycle;Signal;HPM_P1;HPM_P2
2023/07/22 00:02:08;;;;;;;2.97;2.77;;;;;;;;;;5016846;28;20456;-58
2023/07/22 00:04:35;;;;;;;2.97;2.77;;;;;;;;;;5017065;28;20563;-58
2023/07/22 00:07:02;;;;;;;3.47;2.93;;;;;;;;;;5016997;28;20484;-56
2023/07/22 00:09:29;;;;;;;3.27;2.97;;;;;;;;;;5016862;28;20456;-57
2023/07/22 00:11:56;;;;;;;2.73;2.63;;;;;;;;;;5016819;28;21011;-57
2023/07/22 00:14:24;;;;;;;3.50;3.30;;;;;;;;;;5016683;28;20458;-57
2023/07/22 00:16:51;;;;;;;3.40;2.70;;;;;;;;;;5016479;28;20484;-57
2023/07/22 00:19:18;;;;;;;3.23;2.90;;;;;;;;;;5016822;28;20557;-56
2023/07/22 00:21:45;;;;;;;3.07;2.87;;;;;;;;;;5016488;28;21023;-58
2023/07/22 00:24:12;;;;;;;3.27;3.07;;;;;;;;;;5016590;28;20451;-58
2023/07/22 00:26:39;;;;;;;3.10;2.93;;;;;;;;;;5016604;28;20554;-57
2023/07/22 00:29:06;;;;;;;2.80;2.70;;;;;;;;;;5016370;28;20448;-57
2023/07/22 00:31:36;;;;;;;2.90;2.70;;;;;;;;;;5016300;28;20486;-58
2023/07/22 00:34:03;;;;;;;4.00;2.87;;;;;;;;;;5016430;28;20487;-57
2023/07/22 00:36:30;;;;;;;2.60;2.50;;;;;;;;;;5016415;28;20542;-57
2023/07/22 00:38:57;;;;;;;2.77;2.57;;;;;;;;;;5016248;28;20502;-57
2023/07/22 00:41:24;;;;;;;3.27;3.07;;;;;;;;;;5016180;28;20456;-57
2023/07/22 00:43:51;;;;;;;3.27;3.00;;;;;;;;;;5016102;28;20548;-57
2023/07/22 00:46:18;;;;;;;3.27;3.07;;;;;;;;;;5016082;28;20956;-58
2023/07/22 00:48:47;;;;;;;3.87;3.40;;;;;;;;;;5016172;28;20545;-57
2023/07/22 00:51:14;;;;;;;2.97;2.77;;;;;;;;;;5016114;28;21027;-57
2023/07/22 00:53:40;;;;;;;3.30;3.10;;;;;;;;;;5016027;28;20518;-58
2023/07/22 00:56:07;;;;;;;2.90;2.70;;;;;;;;;;5015844;28;20845;-57
2023/07/22 00:58:35;;;;;;;3.60;3.37;;;;;;;;;;5015699;28;20526;-57
2023/07/22 01:01:02;;;;;;;4.43;3.67;;;;;;;;;;5015759;28;20899;-56
2023/07/22 01:03:29;;;;;;;3.70;3.40;;;;;;;;;;5015876;28;20547;-58
2023/07/22 01:06:00;;;;;;;3.17;2.97;;;;;;;;;;5015826;28;20463;-57
2023/07/22 01:08:27;;;;;;;3.80;3.50;;;;;;;;;;5015719;28;20451;-57
2023/07/22 01:10:54;;;;;;;3.60;3.40;;;;;;;;;;5015612;28;20543;-58
2023/07/22 01:13:21;;;;;;;3.53;3.33;;;;;;;;;;5015996;28;20453;-57
2023/07/22 01:15:48;;;;;;;4.03;3.80;;;;;;;;;;5015519;28;21015;-57
2023/07/22 01:18:15;;;;;;;4.27;4.07;;;;;;;;;;5015559;28;20483;-57
2023/07/22 01:20:43;;;;;;;4.00;3.80;;;;;;;;;;5015561;28;20546;-57
2023/07/22 01:23:11;;;;;;;4.27;4.07;;;;;;;;;;5015444;28;20551;-57
2023/07/22 01:25:38;;;;;;;4.40;4.13;;;;;;;;;;5015238;28;20460;-57
2023/07/22 01:28:10;;;;;;;4.30;4.00;;;;;;;;;;5015486;28;20452;-57
2023/07/22 01:30:37;;;;;;;4.87;4.47;;;;;;;;;;5015484;28;20497;-58
2023/07/22 01:33:04;;;;;;;4.50;4.10;;;;;;;;;;5015252;28;20915;-58
2023/07/22 01:35:31;;;;;;;5.50;5.00;;;;;;;;;;5015229;28;20568;-56
2023/07/22 01:37:58;;;;;;;5.10;4.80;;;;;;;;;;5015481;28;20904;-57
2023/07/22 01:40:28;;;;;;;5.20;4.80;;;;;;;;;;5015373;28;20461;-57
2023/07/22 01:42:55;;;;;;;5.33;4.97;;;;;;;;;;5015177;28;20460;-56
2023/07/22 01:45:22;;;;;;;5.40;5.03;;;;;;;;;;5015012;28;20523;-57
2023/07/22 01:47:49;;;;;;;7.53;5.90;;;;;;;;;;5015073;28;20550;-57
2023/07/22 01:50:18;;;;;;;5.20;4.90;;;;;;;;;;5014964;28;20542;-58
2023/07/22 01:52:46;;;;;;;5.33;5.03;;;;;;;;;;5014780;28;20452;-57
2023/07/22 01:55:13;;;;;;;6.63;6.13;;;;;;;;;;5015012;28;20849;-57
2023/07/22 01:57:41;;;;;;;5.83;5.43;;;;;;;;;;5014571;28;20502;-58
2023/07/22 02:00:10;;;;;;;5.30;4.90;;;;;;;;;;5014837;28;20555;-57
2023/07/22 02:02:37;;;;;;;5.60;5.20;;;;;;;;;;5014722;28;20534;-57
2023/07/22 02:05:04;;;;;;;5.80;5.40;;;;;;;;;;5014643;28;20485;-57
2023/07/22 02:07:31;;;;;;;8.10;6.00;;;;;;;;;;5014497;28;20494;-57
2023/07/22 02:09:58;;;;;;;5.67;5.27;;;;;;;;;;5014707;28;20884;-57
2023/07/22 02:12:25;;;;;;;5.50;5.10;;;;;;;;;;5013893;28;20538;-57
2023/07/22 02:14:54;;;;;;;6.70;6.10;;;;;;;;;;5014538;28;20461;-57
2023/07/22 02:17:21;;;;;;;5.50;5.10;;;;;;;;;;5014406;28;20481;-57
2023/07/22 02:19:48;;;;;;;5.33;5.00;;;;;;;;;;5014290;28;20816;-55
2023/07/22 02:22:15;;;;;;;6.97;6.47;;;;;;;;;;5014526;28;20546;-57
2023/07/22 02:24:42;;;;;;;6.00;5.50;;;;;;;;;;5014333;28;20453;-56
2023/07/22 02:27:09;;;;;;;5.77;5.27;;;;;;;;;;5014367;28;20455;-56
2023/07/22 02:29:37;;;;;;;7.20;5.67;;;;;;;;;;5014169;28;20457;-56
2023/07/22 02:32:06;;;;;;;5.77;5.27;;;;;;;;;;5014161;28;20483;-53
2023/07/22 02:34:33;;;;;;;5.37;5.07;;;;;;;;;;5014003;28;20451;-57
2023/07/22 02:37:00;;;;;;;6.03;5.37;;;;;;;;;;5014133;28;20484;-57
2023/07/22 02:39:26;;;;;;;5.17;4.87;;;;;;;;;;5014148;28;20898;-58
2023/07/22 02:41:53;;;;;;;5.70;5.23;;;;;;;;;;5014071;28;20665;-56
2023/07/22 02:44:20;;;;;;;5.67;5.27;;;;;;;;;;5013972;28;20545;-57
2023/07/22 02:46:48;;;;;;;4.77;4.47;;;;;;;;;;5013928;28;20463;-57
2023/07/22 02:49:16;;;;;;;5.20;4.80;;;;;;;;;;5014032;28;20649;-57
2023/07/22 02:51:43;;;;;;;5.63;4.90;;;;;;;;;;5013480;28;20535;-57
2023/07/22 02:54:10;;;;;;;5.43;4.47;;;;;;;;;;5013843;28;20456;-57
2023/07/22 02:56:37;;;;;;;4.90;4.60;;;;;;;;;;5013669;28;20472;-57
2023/07/22 02:59:04;;;;;;;5.13;4.80;;;;;;;;;;5013624;28;20490;-58
2023/07/22 03:01:31;;;;;;;4.50;4.10;;;;;;;;;;5013520;28;20879;-56
2023/07/22 03:03:58;;;;;;;4.67;4.37;;;;;;;;;;4996301;28;20546;-57
2023/07/22 03:06:26;;;;;;;5.00;4.70;;;;;;;;;;5013723;28;20530;-56
2023/07/22 03:08:54;;;;;;;5.20;4.70;;;;;;;;;;5013579;28;20467;-58
2023/07/22 03:11:24;;;;;;;4.77;4.47;;;;;;;;;;5013571;28;20451;-57
2023/07/22 03:13:51;;;;;;;4.63;4.23;;;;;;;;;;5013436;28;20448;-56
2023/07/22 03:16:18;;;;;;;4.90;4.60;;;;;;;;;;5013306;28;20451;-56
2023/07/22 03:18:45;;;;;;;4.47;4.20;;;;;;;;;;5013446;28;20489;-56
2023/07/22 03:21:12;;;;;;;4.33;4.00;;;;;;;;;;5013495;28;20553;-57
2023/07/22 03:23:41;;;;;;;4.80;4.40;;;;;;;;;;5013331;28;20459;-56
2023/07/22 03:26:08;;;;;;;4.40;4.10;;;;;;;;;;5013318;28;20486;-54
2023/07/22 03:28:35;;;;;;;5.10;4.70;;;;;;;;;;4995574;28;20448;-56
2023/07/22 03:31:02;;;;;;;7.70;5.03;;;;;;;;;;5013377;28;20455;-55
2023/07/22 03:33:29;;;;;;;5.77;4.70;;;;;;;;;;5013125;28;20896;-57
2023/07/22 03:35:56;;;;;;;4.30;4.00;;;;;;;;;;5013259;28;20451;-57
2023/07/22 03:38:22;;;;;;;4.50;4.23;;;;;;;;;;5013132;28;20489;-57
2023/07/22 03:40:52;;;;;;;4.73;4.23;;;;;;;;;;5013098;28;20947;-57
2023/07/22 03:43:19;;;;;;;4.73;4.00;;;;;;;;;;5013087;28;20446;-57
2023/07/22 03:45:46;;;;;;;4.00;3.70;;;;;;;;;;5013213;28;20963;-57
2023/07/22 03:48:13;;;;;;;4.17;3.90;;;;;;;;;;4995512;28;20472;-58
2023/07/22 03:50:40;;;;;;;4.57;4.27;;;;;;;;;;5013092;28;20535;-58
2023/07/22 03:53:07;;;;;;;4.57;4.27;;;;;;;;;;5013024;28;20447;-57
2023/07/22 03:55:34;;;;;;;3.97;3.67;;;;;;;;;;5013187;28;20546;-57
2023/07/22 03:58:02;;;;;;;4.10;3.90;;;;;;;;;;5012782;28;20574;-58
2023/07/22 04:00:29;;;;;;;5.17;3.83;;;;;;;;;;5013028;28;20456;-57
2023/07/22 04:02:57;;;;;;;3.47;3.27;;;;;;;;;;5012815;28;20459;-57
2023/07/22 04:05:24;;;;;;;3.50;3.27;;;;;;;;;;5012975;28;21006;-55
2023/07/22 04:07:51;;;;;;;4.93;4.30;;;;;;;;;;5012927;28;20892;-56
2023/07/22 04:10:17;;;;;;;3.97;3.77;;;;;;;;;;5012779;28;20488;-55
2023/07/22 04:12:44;;;;;;;3.67;3.40;;;;;;;;;;5013039;28;20880;-57
2023/07/22 04:15:13;;;;;;;3.40;3.13;;;;;;;;;;5012960;28;20563;-55
2023/07/22 04:17:40;;;;;;;3.77;3.50;;;;;;;;;;5012815;28;20456;-57
2023/07/22 04:20:09;;;;;;;3.60;3.40;;;;;;;;;;5012715;28;20802;-54
2023/07/22 04:22:36;;;;;;;3.73;3.43;;;;;;;;;;5012734;28;20456;-57
2023/07/22 04:25:03;;;;;;;3.63;3.43;;;;;;;;;;5012699;28;20535;-56
2023/07/22 04:27:30;;;;;;;3.73;3.43;;;;;;;;;;5012831;28;20456;-57
2023/07/22 04:29:57;;;;;;;3.20;3.10;;;;;;;;;;5012771;28;20893;-57
2023/07/22 04:32:25;;;;;;;2.90;2.70;;;;;;;;;;5012748;28;20878;-57
2023/07/22 04:34:52;;;;;;;2.90;2.70;;;;;;;;;;5014292;28;20491;-57
2023/07/22 04:37:19;;;;;;;3.47;3.27;;;;;;;;;;5016239;28;20475;-57
2023/07/22 04:39:48;;;;;;;3.27;3.07;;;;;;;;;;5016373;28;20486;-57
2023/07/22 04:42:15;;;;;;;3.00;2.80;;;;;;;;;;5016263;28;20490;-56
2023/07/22 04:44:44;;;;;;;2.93;2.80;;;;;;;;;;5016267;28;20448;-55
2023/07/22 04:47:11;;;;;;;3.00;2.80;;;;;;;;;;5016155;28;20451;-57
2023/07/22 04:49:39;;;;;;;3.27;2.97;;;;;;;;;;5015966;28;20463;-54
2023/07/22 04:52:07;;;;;;;9.23;3.27;;;;;;;;;;5016236;28;20535;-55
2023/07/22 04:54:34;;;;;;;2.70;2.60;;;;;;;;;;5016076;28;20460;-57
2023/07/22 04:57:02;;;;;;;2.70;2.50;;;;;;;;;;5015914;28;20566;-56
2023/07/22 04:59:29;;;;;;;3.27;3.00;;;;;;;;;;5015879;28;20478;-57
2023/07/22 05:01:56;;;;;;;4.60;3.67;;;;;;;;;;5015860;28;20554;-57
2023/07/22 05:04:24;;;;;;;2.83;2.50;;;;;;;;;;5015652;28;20542;-55
2023/07/22 05:06:52;;;;;;;3.10;2.90;;;;;;;;;;5016032;28;20883;-57
2023/07/22 05:09:19;;;;;;;2.80;2.60;;;;;;;;;;5015773;28;20861;-57
2023/07/22 05:11:46;;;;;;;3.27;3.07;;;;;;;;;;5015608;28;20486;-57
2023/07/22 05:14:13;;;;;;;3.20;3.00;;;;;;;;;;5015657;28;20444;-56
2023/07/22 05:16:40;;;;;;;3.10;2.90;;;;;;;;;;5015467;28;20447;-58
2023/07/22 05:19:08;;;;;;;3.90;3.23;;;;;;;;;;5015368;28;20537;-55
2023/07/22 05:21:35;;;;;;;3.13;2.93;;;;;;;;;;5015570;28;20450;-57
2023/07/22 05:24:03;;;;;;;2.87;2.77;;;;;;;;;;5015422;28;20460;-56
2023/07/22 05:26:30;;;;;;;3.93;3.53;;;;;;;;;;5015398;28;20492;-56
2023/07/22 05:28:57;;;;;;;4.27;3.00;;;;;;;;;;5015310;28;20515;-56
2023/07/22 05:31:24;;;;;;;3.73;3.43;;;;;;;;;;5015127;28;20547;-57
2023/07/22 05:33:51;;;;;;;3.40;3.10;;;;;;;;;;5015407;28;20512;-56
2023/07/22 05:36:18;;;;;;;3.60;3.37;;;;;;;;;;5015269;28;20491;-56
2023/07/22 05:38:45;;;;;;;3.43;3.20;;;;;;;;;;5015219;28;20483;-57
2023/07/22 05:41:14;;;;;;;3.40;3.20;;;;;;;;;;5015214;28;20483;-57
2023/07/22 05:43:41;;;;;;;5.47;3.97;;;;;;;;;;5015098;28;20535;-57
2023/07/22 05:46:08;;;;;;;3.40;3.20;;;;;;;;;;5013772;28;20486;-56
2023/07/22 05:48:34;;;;;;;4.30;3.40;;;;;;;;;;5015178;28;20564;-57
2023/07/22 05:51:01;;;;;;;3.87;3.47;;;;;;;;;;5014978;28;20881;-56
2023/07/22 05:53:28;;;;;;;4.80;4.10;;;;;;;;;;5014937;28;20448;-57
2023/07/22 05:55:55;;;;;;;4.27;3.80;;;;;;;;;;5014700;28;21010;-57
2023/07/22 05:58:23;;;;;;;4.50;4.10;;;;;;;;;;5014730;28;20563;-57
2023/07/22 06:00:51;;;;;;;4.60;4.20;;;;;;;;;;5014554;28;20480;-57
2023/07/22 06:03:18;;;;;;;5.10;4.73;;;;;;;;;;5014820;28;20452;-57
2023/07/22 06:05:45;;;;;;;4.93;4.47;;;;;;;;;;5014672;28;20547;-58
2023/07/22 06:08:12;;;;;;;4.10;3.90;;;;;;;;;;5014570;28;20456;-57
2023/07/22 06:10:39;;;;;;;4.57;4.17;;;;;;;;;;5014485;28;20544;-57
2023/07/22 06:13:06;;;;;;;4.30;4.00;;;;;;;;;;5014338;28;20544;-57
2023/07/22 06:15:34;;;;;;;3.87;3.57;;;;;;;;;;5014531;28;20457;-56
2023/07/22 06:18:01;;;;;;;6.10;5.50;;;;;;;;;;5014474;28;20484;-57
2023/07/22 06:20:28;;;;;;;5.20;4.80;;;;;;;;;;5014371;28;20552;-57
2023/07/22 06:22:55;;;;;;;5.23;4.40;;;;;;;;;;5014329;28;20459;-57
2023/07/22 06:25:22;;;;;;;5.10;4.63;;;;;;;;;;5014245;28;20500;-57
2023/07/22 06:27:49;;;;;;;5.20;4.70;;;;;;;;;;5014178;28;20536;-57
2023/07/22 06:30:17;;;;;;;4.87;4.47;;;;;;;;;;5014147;28;20990;-57
2023/07/22 06:32:45;;;;;;;5.17;4.67;;;;;;;;;;5014266;28;20460;-57
2023/07/22 06:35:12;;;;;;;5.00;4.50;;;;;;;;;;5014110;28;20453;-57
2023/07/22 06:37:40;;;;;;;4.97;4.57;;;;;;;;;;5014056;28;20552;-57
2023/07/22 06:40:07;;;;;;;6.10;5.50;;;;;;;;;;5013790;28;20527;-57
2023/07/22 06:42:34;;;;;;;4.70;4.30;;;;;;;;;;5014147;28;20880;-58
2023/07/22 06:45:01;;;;;;;4.87;4.53;;;;;;;;;;5014097;28;20848;-57
2023/07/22 06:47:28;;;;;;;7.20;5.40;;;;;;;;;;5013976;28;20886;-57
2023/07/22 06:49:56;;;;;;;5.83;5.30;;;;;;;;;;5013804;28;20544;-57
2023/07/22 06:52:23;;;;;;;5.30;4.80;;;;;;;;;;5013846;28;20543;-57
2023/07/22 06:54:50;;;;;;;5.43;4.93;;;;;;;;;;5013586;28;20449;-57
2023/07/22 06:57:17;;;;;;;6.40;4.63;;;;;;;;;;5013327;28;20569;-57
2023/07/22 06:59:44;;;;;;;5.33;4.37;;;;;;;;;;5013656;28;20489;-58
2023/07/22 07:02:11;;;;;;;4.33;3.93;;;;;;;;;;5013822;28;20455;-57
2023/07/22 07:04:38;;;;;;;4.40;4.00;;;;;;;;;;5013669;28;20536;-57
2023/07/22 07:07:07;;;;;;;4.10;3.80;;;;;;;;;;5013543;28;20486;-57
2023/07/22 07:09:34;;;;;;;4.20;3.90;;;;;;;;;;5013677;28;20452;-57
2023/07/22 07:12:03;;;;;;;4.20;3.80;;;;;;;;;;5013610;28;20479;-56
2023/07/22 07:14:30;;;;;;;3.50;3.00;;;;;;;;;;5013558;28;20456;-57
2023/07/22 07:16:57;;;;;;;3.60;3.30;;;;;;;;;;5013442;28;20543;-57
2023/07/22 07:19:24;;;;;;;3.30;3.00;;;;;;;;;;5013267;28;20480;-58
2023/07/22 07:21:51;;;;;;;3.77;3.50;;;;;;;;;;5013262;28;20452;-58
2023/07/22 07:24:19;;;;;;;3.70;2.90;;;;;;;;;;5013579;28;20495;-58
2023/07/22 07:26:46;;;;;;;4.10;3.23;;;;;;;;;;5013414;28;20502;-59
2023/07/22 07:29:13;;;;;;;3.40;3.10;;;;;;;;;;5013355;28;20454;-57
2023/07/22 07:31:40;;;;;;;2.30;2.10;;;;;;;;;;5013267;28;20459;-58
2023/07/22 07:34:07;;;;;;;6.20;3.23;;;;;;;;;;5013110;28;20457;-58
2023/07/22 07:43:06;;;;;;;3.57;2.73;;;;;;;;;;5013276;28;20423;-57
2023/07/22 07:48:44;;;;;;;3.50;2.80;;;;;;;;;;5013270;28;20580;-57
2023/07/22 07:51:11;;;;;;;3.20;3.00;;;;;;;;;;5012935;28;20546;-56
2023/07/22 07:53:41;;;;;;;3.93;2.93;;;;;;;;;;4995935;28;20453;-57
2023/07/22 07:56:08;;;;;;;7.13;3.70;;;;;;;;;;5012843;28;20520;-57
2023/07/22 07:58:35;;;;;;;3.43;2.60;;;;;;;;;;4995666;28;20450;-58
2023/07/22 08:01:02;;;;;;;4.13;3.03;;;;;;;;;;5012972;28;20460;-56
2023/07/22 08:03:29;;;;;;;3.13;2.93;;;;;;;;;;5012711;28;20456;-57
2023/07/22 08:05:57;;;;;;;4.30;3.90;;;;;;;;;;5012619;28;20979;-58
2023/07/22 08:08:24;;;;;;;4.20;3.27;;;;;;;;;;5012810;28;20490;-58
2023/07/22 08:10:59;;;;;;;3.67;3.47;;;;;;;;;;5016282;28;20464;-58
2023/07/22 08:13:26;;;;;;;7.73;3.13;;;;;;;;;;5016800;28;20461;-58
2023/07/22 08:15:53;;;;;;;4.73;3.50;;;;;;;;;;4999064;28;20515;-59
2023/07/22 08:18:20;;;;;;;6.27;2.83;;;;;;;;;;5016541;28;20541;-58
2023/07/22 08:20:47;;;;;;;3.70;3.20;;;;;;;;;;5016218;28;20482;-58
2023/07/22 08:23:15;;;;;;;2.90;2.70;;;;;;;;;;5016700;28;20446;-58
2023/07/22 08:25:43;;;;;;;3.43;3.10;;;;;;;;;;5016428;28;20457;-57
2023/07/22 08:28:10;;;;;;;4.03;3.27;;;;;;;;;;5016394;28;20476;-56
2023/07/22 08:30:38;;;;;;;4.03;3.53;;;;;;;;;;4998586;28;20457;-57
2023/07/22 08:33:05;;;;;;;4.00;3.60;;;;;;;;;;5016447;28;20453;-57
2023/07/22 08:35:33;;;;;;;3.50;3.20;;;;;;;;;;5016417;28;20454;-56
2023/07/22 08:38:02;;;;;;;7.50;3.30;;;;;;;;;;5016325;28;20545;-57
2023/07/22 08:40:34;;;;;;;2.87;2.60;;;;;;;;;;5016094;28;20483;-56
2023/07/22 08:43:01;;;;;;;4.43;3.30;;;;;;;;;;5016089;28;20588;-56
2023/07/22 08:45:32;;;;;;;5.63;3.00;;;;;;;;;;5016171;28;20561;-57
2023/07/22 08:47:59;;;;;;;3.80;2.77;;;;;;;;;;5016128;28;20937;-56
2023/07/22 08:50:30;;;;;;;2.80;2.60;;;;;;;;;;5016162;28;20553;-56
2023/07/22 08:52:58;;;;;;;3.60;3.30;;;;;;;;;;5016060;28;20489;-56
2023/07/22 08:55:25;;;;;;;5.83;3.90;;;;;;;;;;5015944;28;20540;-57
2023/07/22 08:57:55;;;;;;;3.40;3.20;;;;;;;;;;5015686;28;20561;-57
2023/07/22 09:00:22;;;;;;;3.20;3.00;;;;;;;;;;5015887;28;20485;-56
2023/07/22 09:02:50;;;;;;;3.50;3.20;;;;;;;;;;5015811;28;20497;-56
2023/07/22 09:05:17;;;;;;;3.37;3.17;;;;;;;;;;4982146;28;20831;-56
2023/07/22 09:07:45;;;;;;;3.67;3.37;;;;;;;;;;5015699;28;20546;-56
2023/07/22 09:10:12;;;;;;;3.77;2.93;;;;;;;;;;5015151;28;20457;-56
2023/07/22 09:12:40;;;;;;;3.80;3.60;;;;;;;;;;5015776;28;20541;-58
2023/07/22 09:15:11;;;;;;;3.33;3.13;;;;;;;;;;5015661;28;20466;-56
2023/07/22 09:17:38;;;;;;;5.93;2.97;;;;;;;;;;4997766;28;20470;-57
2023/07/22 09:20:06;;;;;;;4.17;3.57;;;;;;;;;;5014912;28;20482;-57
2023/07/22 09:22:33;;;;;;;3.40;3.17;;;;;;;;;;5015324;28;20454;-58
2023/07/22 09:25:14;;;;;;;3.30;3.00;;;;;;;;;;5015595;28;20451;-57
2023/07/22 09:27:41;;;;;;;3.70;3.40;;;;;;;;;;5015457;28;20855;-56
2023/07/22 09:30:22;;;;;;;4.13;3.40;;;;;;;;;;4997507;28;20455;-57
2023/07/22 09:32:49;;;;;;;5.10;3.70;;;;;;;;;;5015215;28;20489;-57
2023/07/22 09:35:16;;;;;;;4.27;3.17;;;;;;;;;;5015031;28;20461;-58
2023/07/22 09:37:43;;;;;;;3.13;2.83;;;;;;;;;;5015243;28;20553;-54
2023/07/22 09:40:15;;;;;;;4.00;3.53;;;;;;;;;;5015047;28;20573;-56
2023/07/22 09:42:44;;;;;;;4.23;3.40;;;;;;;;;;5015024;28;20462;-57
2023/07/22 09:45:11;;;;;;;3.30;3.07;;;;;;;;;;5015045;28;20542;-57
2023/07/22 09:47:42;;;;;;;3.60;2.90;;;;;;;;;;5014804;28;20453;-56
2023/07/22 09:50:12;;;;;;;3.20;3.00;;;;;;;;;;5015099;28;20545;-56
2023/07/22 09:52:42;;;;;;;3.67;3.37;;;;;;;;;;5014733;28;20492;-56
2023/07/22 09:55:09;;;;;;;3.73;2.90;;;;;;;;;;5014784;28;20896;-54
2023/07/22 09:57:37;;;;;;;3.33;2.70;;;;;;;;;;5014531;28;20486;-56
2023/07/22 10:00:04;;;;;;;3.90;3.60;;;;;;;;;;5014590;28;20906;-57
2023/07/22 10:02:33;;;;;;;3.30;3.00;;;;;;;;;;5014182;28;20969;-57
2023/07/22 10:05:03;;;;;;;2.63;2.27;;;;;;;;;;5014400;28;20558;-57
2023/07/22 10:07:31;;;;;;;2.37;2.27;;;;;;;;;;5014191;28;20934;-57
2023/07/22 10:09:58;;;;;;;2.97;2.67;;;;;;;;;;5014491;28;20542;-54
2023/07/22 10:12:26;;;;;;;4.77;3.70;;;;;;;;;;5014447;28;20549;-54
2023/07/22 10:14:53;;;;;;;2.60;2.40;;;;;;;;;;5014252;28;20875;-56
2023/07/22 10:17:21;;;;;;;2.97;2.73;;;;;;;;;;5014604;28;20490;-55
2023/07/22 10:19:48;;;;;;;2.87;2.63;;;;;;;;;;5014327;28;20485;-56
2023/07/22 10:22:16;;;;;;;3.47;2.70;;;;;;;;;;5014302;28;20455;-57
2023/07/22 10:24:45;;;;;;;3.03;2.63;;;;;;;;;;5014247;28;20455;-57
2023/07/22 10:27:12;;;;;;;4.20;3.03;;;;;;;;;;5014123;28;20449;-56
2023/07/22 10:29:40;;;;;;;2.83;2.63;;;;;;;;;;5014086;28;20459;-56
2023/07/22 10:32:07;;;;;;;3.07;2.77;;;;;;;;;;5013588;28;20873;-57
2023/07/22 10:34:34;;;;;;;4.57;4.27;;;;;;;;;;5013763;28;20997;-56
2023/07/22 10:37:01;;;;;;;3.17;2.97;;;;;;;;;;5013977;28;20540;-57
2023/07/22 10:39:30;;;;;;;3.10;2.90;;;;;;;;;;5013872;28;20515;-57
2023/07/22 10:42:01;;;;;;;4.83;3.70;;;;;;;;;;5013741;28;20542;-57
2023/07/22 10:44:28;;;;;;;3.30;3.00;;;;;;;;;;5014231;28;20454;-56
2023/07/22 10:46:58;;;;;;;3.30;3.10;;;;;;;;;;5013893;28;20509;-57
2023/07/22 10:49:25;;;;;;;2.77;2.47;;;;;;;;;;5013896;28;20957;-57
2023/07/22 10:51:53;;;;;;;2.70;2.50;;;;;;;;;;5013762;28;20871;-56
2023/07/22 10:54:34;;;;;;;3.03;2.83;;;;;;;;;;5013592;28;20450;-57
2023/07/22 10:57:04;;;;;;;2.90;2.70;;;;;;;;;;5013193;28;20532;-55
2023/07/22 10:59:35;;;;;;;5.70;3.13;;;;;;;;;;5012865;28;20454;-55
2023/07/22 11:02:03;;;;;;;3.33;3.13;;;;;;;;;;5012782;28;20476;-56
2023/07/22 11:04:35;;;;;;;2.90;2.70;;;;;;;;;;5012792;28;20450;-57
2023/07/22 11:07:04;;;;;;;4.37;3.90;;;;;;;;;;5012784;28;20530;-54
2023/07/22 11:09:45;;;;;;;3.40;3.10;;;;;;;;;;5012660;28;20965;-57
2023/07/22 11:12:16;;;;;;;4.10;3.27;;;;;;;;;;5013088;28;20693;-56
2023/07/22 11:14:47;;;;;;;4.30;3.50;;;;;;;;;;5012540;28;20447;-57
2023/07/22 11:17:14;;;;;;;4.60;4.07;;;;;;;;;;5012495;28;20452;-56
2023/07/22 11:19:41;;;;;;;3.20;2.90;;;;;;;;;;5012589;28;20489;-56
2023/07/22 11:22:08;;;;;;;3.30;3.10;;;;;;;;;;5012691;28;20455;-57
2023/07/22 11:24:37;;;;;;;4.23;3.33;;;;;;;;;;5012477;28;20454;-57
2023/07/22 11:27:06;;;;;;;3.77;3.57;;;;;;;;;;5012310;28;20451;-57
2023/07/22 11:29:33;;;;;;;8.97;7.87;;;;;;;;;;5012281;28;21026;-57
2023/07/22 11:32:00;;;;;;;4.20;3.90;;;;;;;;;;5012164;28;20550;-56
2023/07/22 11:34:27;;;;;;;3.20;2.90;;;;;;;;;;5012247;28;20450;-57
2023/07/22 11:36:55;;;;;;;4.13;3.13;;;;;;;;;;5012357;28;20446;-57
2023/07/22 11:39:22;;;;;;;3.43;3.13;;;;;;;;;;5012352;28;20442;-56
2023/07/22 11:41:50;;;;;;;3.77;3.47;;;;;;;;;;5012153;28;20512;-57
2023/07/22 11:44:19;;;;;;;4.70;4.30;;;;;;;;;;5010890;28;20524;-57
2023/07/22 11:46:50;;;;;;;3.10;2.80;;;;;;;;;;5012287;28;20454;-56
2023/07/22 11:49:24;;;;;;;5.10;4.73;;;;;;;;;;5012272;28;20545;-56
2023/07/22 11:51:51;;;;;;;3.23;3.03;;;;;;;;;;5012190;28;20453;-57
2023/07/22 11:54:18;;;;;;;3.33;3.13;;;;;;;;;;5011999;28;20450;-57
2023/07/22 11:56:45;;;;;;;4.53;3.40;;;;;;;;;;4979074;28;963229;-57
2023/07/22 11:59:12;;;;;;;4.10;3.80;;;;;;;;;;5012811;28;20195;-57
2023/07/22 12:01:40;;;;;;;3.47;3.20;;;;;;;;;;5012757;28;20816;-57
2023/07/22 12:04:11;;;;;;;3.43;3.13;;;;;;;;;;5012803;28;20999;-57
2023/07/22 12:06:39;;;;;;;3.83;3.60;;;;;;;;;;5012930;28;20450;-57
2023/07/22 12:09:05;;;;;;;4.33;3.93;;;;;;;;;;5012865;28;20977;-57
2023/07/22 12:11:34;;;;;;;3.53;3.23;;;;;;;;;;5012638;28;20894;-58
2023/07/22 12:14:10;;;;;;;3.80;3.50;;;;;;;;;;5012812;28;20538;-58
2023/07/22 12:16:38;;;;;;;3.00;2.80;;;;;;;;;;5012695;28;20486;-57
2023/07/22 12:19:07;;;;;;;3.63;3.43;;;;;;;;;;5012817;28;20450;-57
2023/07/22 12:21:34;;;;;;;3.17;2.97;;;;;;;;;;5012599;28;20570;-57
2023/07/22 12:24:01;;;;;;;3.27;3.07;;;;;;;;;;5012589;28;20490;-58
2023/07/22 12:26:28;;;;;;;4.00;3.40;;;;;;;;;;5012894;28;20545;-58
2023/07/22 12:28:55;;;;;;;3.50;3.30;;;;;;;;;;5012706;28;20453;-57
2023/07/22 12:31:22;;;;;;;3.20;3.00;;;;;;;;;;5012704;28;20878;-57
2023/07/22 12:33:49;;;;;;;3.27;3.07;;;;;;;;;;5012397;28;20461;-57
2023/07/22 12:36:17;;;;;;;3.73;3.10;;;;;;;;;;5012424;28;20461;-56
2023/07/22 12:38:44;;;;;;;3.40;3.20;;;;;;;;;;5012456;28;21004;-57
2023/07/22 12:41:11;;;;;;;3.80;3.30;;;;;;;;;;5012551;28;20572;-56
2023/07/22 12:43:38;;;;;;;3.80;3.50;;;;;;;;;;5012372;28;20463;-57
2023/07/22 12:46:06;;;;;;;3.87;3.57;;;;;;;;;;5012459;28;20542;-57
2023/07/22 12:48:33;;;;;;;4.43;3.73;;;;;;;;;;5012525;28;20450;-56
2023/07/22 12:51:00;;;;;;;2.80;2.60;;;;;;;;;;5012323;28;20477;-58
2023/07/22 12:53:29;;;;;;;3.70;3.50;;;;;;;;;;5012571;28;20482;-58
2023/07/22 12:55:56;;;;;;;6.03;5.43;;;;;;;;;;5013965;28;20457;-57
2023/07/22 12:58:23;;;;;;;3.77;3.43;;;;;;;;;;5015948;28;20482;-56
2023/07/22 13:00:50;;;;;;;4.83;3.70;;;;;;;;;;5015736;28;20877;-57
2023/07/22 13:03:17;;;;;;;3.57;3.30;;;;;;;;;;5015629;28;20546;-57
2023/07/22 13:05:44;;;;;;;3.50;3.30;;;;;;;;;;5015619;28;20450;-58
2023/07/22 13:08:11;;;;;;;3.57;3.20;;;;;;;;;;5015686;28;20447;-58
2023/07/22 13:10:43;;;;;;;3.10;2.90;;;;;;;;;;5015626;28;20482;-56
2023/07/22 13:13:10;;;;;;;3.90;3.10;;;;;;;;;;5015651;28;20504;-56
2023/07/22 13:15:37;;;;;;;3.93;3.63;;;;;;;;;;5015562;28;20447;-56
2023/07/22 13:18:04;;;;;;;3.90;3.60;;;;;;;;;;5015349;28;20542;-58
2023/07/22 13:20:31;;;;;;;3.23;3.03;;;;;;;;;;5015516;28;20541;-57
2023/07/22 13:22:58;;;;;;;4.03;3.73;;;;;;;;;;5015506;28;20489;-57
2023/07/22 13:25:25;;;;;;;4.03;3.53;;;;;;;;;;5015541;28;20541;-57
2023/07/22 13:27:55;;;;;;;3.53;3.33;;;;;;;;;;5015405;28;20847;-57
2023/07/22 13:30:22;;;;;;;3.27;2.97;;;;;;;;;;5015224;28;20450;-57
2023/07/22 13:32:48;;;;;;;4.10;3.80;;;;;;;;;;5014992;28;20450;-57
2023/07/22 13:35:15;;;;;;;3.20;3.00;;;;;;;;;;5015216;28;20482;-57
2023/07/22 13:37:42;;;;;;;5.27;4.10;;;;;;;;;;5015151;28;20474;-57
2023/07/22 13:40:10;;;;;;;4.47;2.80;;;;;;;;;;5014992;28;21056;-56
2023/07/22 13:42:38;;;;;;;3.30;3.10;;;;;;;;;;5014985;28;20490;-57
2023/07/22 13:45:07;;;;;;;3.90;3.50;;;;;;;;;;5014789;28;20450;-56
2023/07/22 13:47:34;;;;;;;3.47;3.27;;;;;;;;;;5015017;28;20541;-57
2023/07/22 13:50:01;;;;;;;3.27;3.07;;;;;;;;;;5015050;28;20557;-57
2023/07/22 13:52:28;;;;;;;4.10;3.80;;;;;;;;;;5014906;28;20455;-58
2023/07/22 13:54:55;;;;;;;3.80;3.40;;;;;;;;;;5014821;28;20542;-57
2023/07/22 13:57:22;;;;;;;4.10;3.77;;;;;;;;;;5014510;28;21019;-57
2023/07/22 13:59:49;;;;;;;3.60;2.90;;;;;;;;;;5014659;28;20499;-57
2023/07/22 14:02:17;;;;;;;3.30;3.10;;;;;;;;;;5014677;28;20497;-57
2023/07/22 14:04:44;;;;;;;3.83;3.53;;;;;;;;;;5014735;28;20549;-57
2023/07/22 14:07:11;;;;;;;3.63;3.33;;;;;;;;;;5013666;28;20865;-57
2023/07/22 14:09:38;;;;;;;4.40;3.70;;;;;;;;;;5014954;28;20453;-57
2023/07/22 14:12:05;;;;;;;3.40;3.10;;;;;;;;;;5014477;28;20533;-57
2023/07/22 14:14:33;;;;;;;3.83;3.63;;;;;;;;;;5014570;28;20447;-58
2023/07/22 14:17:00;;;;;;;3.83;3.63;;;;;;;;;;5014434;28;20446;-58
2023/07/22 14:19:28;;;;;;;3.47;3.27;;;;;;;;;;5014327;28;20489;-58
2023/07/22 14:21:55;;;;;;;3.53;3.33;;;;;;;;;;5014301;28;20486;-56
2023/07/22 14:24:22;;;;;;;4.40;3.77;;;;;;;;;;5014196;28;20493;-58
2023/07/22 14:26:49;;;;;;;4.50;4.00;;;;;;;;;;5014133;28;20883;-57
2023/07/22 14:29:16;;;;;;;3.50;3.20;;;;;;;;;;5014404;28;20450;-58
2023/07/22 14:31:44;;;;;;;3.70;3.40;;;;;;;;;;5014264;28;20541;-58
2023/07/22 14:34:11;;;;;;;4.10;3.80;;;;;;;;;;5014015;28;20549;-58
2023/07/22 14:36:39;;;;;;;3.90;3.60;;;;;;;;;;5013965;28;21037;-57
2023/07/22 14:39:07;;;;;;;3.03;2.83;;;;;;;;;;5014094;28;21061;-57
2023/07/22 14:41:34;;;;;;;3.80;3.50;;;;;;;;;;5013728;28;20483;-58
2023/07/22 14:44:01;;;;;;;5.70;3.77;;;;;;;;;;5014009;28;20903;-57
2023/07/22 14:46:29;;;;;;;3.17;2.90;;;;;;;;;;5014024;28;20549;-58
2023/07/22 14:48:56;;;;;;;4.47;3.13;;;;;;;;;;5013773;28;20800;-58
2023/07/22 14:51:22;;;;;;;3.93;3.63;;;;;;;;;;5013689;28;20541;-58
2023/07/22 14:53:51;;;;;;;6.20;3.67;;;;;;;;;;5013722;28;20558;-58
2023/07/22 14:56:18;;;;;;;3.17;2.97;;;;;;;;;;5013529;28;20521;-57